createdAt,value
2023-09-19T00:00:58.923Z,99538.34
2023-09-19T00:04:02.284Z,99537.94
2023-09-19T00:07:04.952Z,99550.22
2023-09-19T00:10:10.809Z,99552.84
2023-09-19T00:13:15.644Z,99553.66
2023-09-19T00:16:20.332Z,99558.22
2023-09-19T00:19:22.906Z,99560.28
2023-09-19T00:22:27.536Z,99557.56
2023-09-19T00:25:30.017Z,99566.84
2023-09-19T00:28:33.017Z,99571.47
2023-09-19T00:31:38.686Z,99562.38
2023-09-19T00:34:41.480Z,99563.12
2023-09-19T00:37:44.008Z,99557.00
2023-09-19T00:40:47.639Z,99572.66
2023-09-19T00:43:52.015Z,99568.09
2023-09-19T00:46:55.894Z,99566.34
2023-09-19T00:49:58.494Z,99573.16
2023-09-19T00:53:01.101Z,99567.53
2023-09-19T00:56:09.462Z,99577.06
2023-09-19T00:59:12.926Z,99581.78
2023-09-19T01:02:16.820Z,99576.75
2023-09-19T01:05:19.833Z,99574.00
2023-09-19T01:08:22.202Z,99559.06
2023-09-19T01:11:46.885Z,99583.59
2023-09-19T01:15:01.053Z,99586.03
2023-09-19T01:18:29.226Z,99578.03
2023-09-19T01:21:42.576Z,99578.59
2023-09-19T01:25:06.939Z,99587.81
2023-09-19T01:28:31.720Z,99579.97
2023-09-19T01:31:36.881Z,99579.56
2023-09-19T01:34:58.939Z,99597.72
2023-09-19T01:38:01.585Z,99598.50
2023-09-19T01:41:08.822Z,99602.59
2023-09-19T01:44:18.994Z,99611.47
2023-09-19T01:47:29.489Z,99617.09
2023-09-19T01:50:41.748Z,99629.72
2023-09-19T01:54:06.057Z,99630.31
2023-09-19T01:57:34.308Z,99618.63
2023-09-19T02:00:39.072Z,99637.13
2023-09-19T02:03:42.438Z,99633.88
2023-09-19T02:06:48.512Z,99636.44
2023-09-19T02:09:51.164Z,99622.28
2023-09-19T02:12:53.654Z,99628.03
2023-09-19T02:15:57.029Z,99621.31
2023-09-19T02:19:01.191Z,99623.06
2023-09-19T02:22:08.800Z,99626.91
2023-09-19T02:25:12.112Z,99634.19
2023-09-19T02:28:14.772Z,99640.69
2023-09-19T02:31:17.782Z,99650.69
2023-09-19T02:34:21.396Z,99638.59
2023-09-19T02:37:23.832Z,99649.19
2023-09-19T02:40:27.267Z,99641.97
2023-09-19T02:43:29.904Z,99652.31
2023-09-19T02:46:32.892Z,99655.91
2023-09-19T02:49:36.077Z,99648.38
2023-09-19T02:52:44.522Z,99659.75
2023-09-19T02:55:48.256Z,99672.16
2023-09-19T02:58:51.077Z,99682.97
2023-09-19T03:01:55.277Z,99682.94
2023-09-19T03:04:59.058Z,99681.87
2023-09-19T03:08:02.036Z,99692.91
2023-09-19T03:11:05.049Z,99692.84
2023-09-19T03:14:07.449Z,99691.38
2023-09-19T03:17:10.605Z,99690.94
2023-09-19T03:20:15.593Z,99681.31
2023-09-19T03:23:18.443Z,99696.87
2023-09-19T03:26:20.822Z,99694.38
2023-09-19T03:29:23.815Z,99692.75
2023-09-19T03:32:26.321Z,99692.75
2023-09-19T03:35:29.180Z,99698.56
2023-09-19T03:38:33.454Z,99698.41
2023-09-19T03:41:37.742Z,99708.41
2023-09-19T03:44:40.507Z,99714.94
2023-09-19T03:47:43.283Z,99702.44
2023-09-19T03:50:46.277Z,99695.22
2023-09-19T03:53:50.401Z,99698.06
2023-09-19T03:56:52.778Z,99697.88
2023-09-19T03:59:55.518Z,99703.31
2023-09-19T04:02:58.086Z,99713.38
2023-09-19T04:06:01.056Z,99715.81
2023-09-19T04:09:08.143Z,99721.25
2023-09-19T04:12:10.814Z,99727.63
2023-09-19T04:15:14.486Z,99725.72
2023-09-19T04:18:17.226Z,99722.28
2023-09-19T04:21:20.216Z,99724.97
2023-09-19T04:24:22.964Z,99707.31
2023-09-19T04:27:25.391Z,99722.94
2023-09-19T04:30:28.187Z,99720.22
2023-09-19T04:33:30.687Z,99725.50
2023-09-19T04:36:36.321Z,99730.00
2023-09-19T04:39:39.705Z,99731.09
2023-09-19T04:42:42.900Z,99723.75
2023-09-19T04:45:45.412Z,99725.59
2023-09-19T04:48:48.162Z,99730.06
2023-09-19T04:51:50.581Z,99731.03
2023-09-19T04:54:53.681Z,99731.75
2023-09-19T04:57:56.328Z,99741.75
2023-09-19T05:00:59.002Z,99748.00
2023-09-19T05:04:02.001Z,99747.84
2023-09-19T05:07:04.714Z,99746.75
2023-09-19T05:10:08.164Z,99754.84
2023-09-19T05:13:11.410Z,99753.81
2023-09-19T05:16:13.839Z,99757.50
2023-09-19T05:19:16.650Z,99757.44
2023-09-19T05:22:19.799Z,99771.69
2023-09-19T05:25:23.322Z,99767.13
2023-09-19T05:28:25.759Z,99768.41
2023-09-19T05:31:28.943Z,99738.03
2023-09-19T05:34:31.758Z,99767.22
2023-09-19T05:37:34.596Z,99760.69
2023-09-19T05:40:37.176Z,99769.28
2023-09-19T05:43:40.075Z,99760.91
2023-09-19T05:46:42.750Z,99761.50
2023-09-19T05:50:02.360Z,99772.00
2023-09-19T05:53:05.851Z,99775.62
2023-09-19T05:56:09.958Z,99775.53
2023-09-19T05:59:12.598Z,99780.91
2023-09-19T06:02:15.525Z,99786.13
2023-09-19T06:05:18.212Z,99798.69
2023-09-19T06:08:20.716Z,99803.13
2023-09-19T06:11:26.031Z,99802.09
2023-09-19T06:14:28.445Z,99806.41
2023-09-19T06:17:32.177Z,99818.00
2023-09-19T06:20:34.817Z,99814.41
2023-09-19T06:23:37.868Z,99819.56
2023-09-19T06:26:40.775Z,99829.34
2023-09-19T06:29:43.449Z,99836.31
2023-09-19T06:32:45.920Z,99828.88
2023-09-19T06:35:49.085Z,99830.25
2023-09-19T06:38:52.570Z,99838.06
2023-09-19T06:41:55.457Z,99825.75
2023-09-19T06:44:58.202Z,99838.97
2023-09-19T06:48:01.467Z,99842.03
2023-09-19T06:51:06.252Z,99852.41
2023-09-19T06:54:09.003Z,99849.03
2023-09-19T06:57:11.455Z,99848.06
2023-09-19T07:00:19.865Z,99854.38
2023-09-19T07:03:24.854Z,99861.59
2023-09-19T07:06:27.635Z,99849.47
2023-09-19T07:09:30.021Z,99862.47
2023-09-19T07:12:33.980Z,99864.31
2023-09-19T07:15:39.725Z,99867.19
2023-09-19T07:18:44.713Z,99879.16
2023-09-19T07:21:48.614Z,99880.13
2023-09-19T07:24:51.324Z,99881.19
2023-09-19T07:27:53.712Z,99888.13
2023-09-19T07:30:56.439Z,99890.00
2023-09-19T07:33:58.864Z,99900.59
2023-09-19T07:37:01.689Z,99907.88
2023-09-19T07:40:10.780Z,99916.66
2023-09-19T07:43:13.697Z,99921.44
2023-09-19T07:46:16.343Z,99913.06
2023-09-19T07:49:19.291Z,99915.63
2023-09-19T07:52:23.706Z,99923.38
2023-09-19T07:55:27.166Z,99934.03
2023-09-19T07:58:29.921Z,99941.09
2023-09-19T08:01:34.182Z,99938.00
2023-09-19T08:04:37.345Z,99942.56
2023-09-19T08:07:41.165Z,99946.81
2023-09-19T08:10:44.650Z,99949.47
2023-09-19T08:13:49.902Z,99954.38
2023-09-19T08:16:52.922Z,99949.03
2023-09-19T08:19:55.387Z,99957.78
2023-09-19T08:22:58.233Z,99970.34
2023-09-19T08:26:04.495Z,99968.38
2023-09-19T08:29:13.157Z,99964.69
2023-09-19T08:32:16.304Z,99968.59
2023-09-19T08:35:19.074Z,99968.38
2023-09-19T08:38:21.648Z,99973.34
2023-09-19T08:41:24.462Z,99974.59
2023-09-19T08:44:29.016Z,99983.22
2023-09-19T08:47:40.772Z,99993.00
2023-09-19T08:51:03.059Z,99980.91
2023-09-19T08:54:08.556Z,99994.84
2023-09-19T08:57:22.400Z,99991.28
2023-09-19T09:00:27.018Z,99993.28
2023-09-19T09:03:33.510Z,99988.03
2023-09-19T09:06:37.131Z,99983.66
2023-09-19T09:09:43.205Z,99991.94
2023-09-19T09:12:46.309Z,99991.63
2023-09-19T09:15:49.391Z,99998.06
2023-09-19T09:18:54.426Z,99997.62
2023-09-19T09:22:07.403Z,99993.81
2023-09-19T09:25:10.064Z,99996.91
2023-09-19T09:28:12.512Z,99995.47
2023-09-19T09:31:26.134Z,99993.75
2023-09-19T09:34:34.980Z,100002.63
2023-09-19T09:37:39.653Z,99990.03
2023-09-19T09:41:11.056Z,99988.28
2023-09-19T09:44:20.859Z,99984.16
2023-09-19T09:47:43.034Z,99995.81
2023-09-19T09:50:49.582Z,99990.22
2023-09-19T09:53:54.195Z,99997.38
2023-09-19T09:57:21.530Z,99995.63
2023-09-19T10:00:24.705Z,99994.63
2023-09-19T10:03:41.371Z,99986.72
2023-09-19T10:06:48.863Z,99986.53
2023-09-19T10:09:52.479Z,99999.53
2023-09-19T10:12:57.251Z,99998.34
2023-09-19T10:16:00.312Z,99996.59
2023-09-19T10:19:04.064Z,100006.78
2023-09-19T10:22:10.061Z,100010.31
2023-09-19T10:25:13.681Z,100002.00
2023-09-19T10:28:22.708Z,100007.97
2023-09-19T10:31:27.036Z,100014.72
2023-09-19T10:34:31.504Z,100007.78
2023-09-19T10:37:35.381Z,100010.84
2023-09-19T10:40:42.168Z,100018.12
2023-09-19T10:43:47.599Z,100020.75
2023-09-19T10:46:53.813Z,100018.69
2023-09-19T10:49:57.220Z,100012.12
2023-09-19T10:53:07.536Z,100011.50
2023-09-19T10:56:18.436Z,100015.41
2023-09-19T10:59:22.731Z,100012.97
2023-09-19T11:02:26.284Z,100015.72
2023-09-19T11:05:30.505Z,100010.69
2023-09-19T11:09:22.969Z,100006.53
2023-09-19T11:12:38.386Z,100010.66
2023-09-19T11:16:07.416Z,100008.91
2023-09-19T11:19:12.332Z,100010.97
2023-09-19T11:22:15.086Z,100009.72
2023-09-19T11:25:35.682Z,100012.47
2023-09-19T11:28:40.283Z,100000.94
2023-09-19T11:31:47.346Z,100003.69
2023-09-19T11:34:51.817Z,99995.22
2023-09-19T11:37:54.767Z,100001.19
2023-09-19T11:41:26.876Z,100002.00
2023-09-19T11:44:39.143Z,99990.88
2023-09-19T11:47:43.130Z,99989.38
2023-09-19T11:50:46.281Z,99998.03
2023-09-19T11:53:52.424Z,99986.06
2023-09-19T11:56:55.629Z,99999.75
2023-09-19T11:59:59.505Z,99997.66
2023-09-19T12:03:10.639Z,99992.41
2023-09-19T12:06:15.656Z,99983.97
2023-09-19T12:09:21.520Z,99992.16
2023-09-19T12:12:28.176Z,99995.88
2023-09-19T12:15:36.164Z,99994.31
2023-09-19T12:18:39.054Z,99995.81
2023-09-19T12:21:41.633Z,99998.88
2023-09-19T12:24:45.585Z,99994.03
2023-09-19T12:27:50.759Z,99991.41
2023-09-19T12:30:56.379Z,99974.78
2023-09-19T12:33:59.967Z,99991.13
2023-09-19T12:37:32.672Z,99995.22
2023-09-19T12:40:38.753Z,100004.06
2023-09-19T12:43:43.513Z,99991.88
2023-09-19T12:46:46.422Z,99980.75
2023-09-19T12:50:15.065Z,99982.09
2023-09-19T12:53:30.303Z,99989.38
2023-09-19T12:56:42.903Z,99986.56
2023-09-19T12:59:45.327Z,99983.81
2023-09-19T13:03:17.124Z,99989.56
2023-09-19T13:06:39.058Z,99987.38
2023-09-19T13:09:41.937Z,99985.59
2023-09-19T13:12:48.940Z,99996.75
2023-09-19T13:15:54.776Z,99991.31
2023-09-19T13:18:58.909Z,99998.25
2023-09-19T13:22:02.228Z,100009.38
2023-09-19T13:25:07.771Z,100002.00
2023-09-19T13:28:10.439Z,100003.44
2023-09-19T13:31:13.063Z,99994.88
2023-09-19T13:34:17.807Z,99999.50
2023-09-19T13:37:20.168Z,99997.41
2023-09-19T13:40:22.918Z,100001.31
2023-09-19T13:43:26.162Z,99997.09
2023-09-19T13:46:29.050Z,99992.66
2023-09-19T13:49:33.381Z,99994.00
2023-09-19T13:52:36.208Z,99994.06
2023-09-19T13:55:39.117Z,100003.03
2023-09-19T13:58:43.233Z,99998.50
2023-09-19T14:01:47.408Z,99998.63
2023-09-19T14:04:53.620Z,99998.31
2023-09-19T14:07:57.144Z,100004.13
2023-09-19T14:11:00.040Z,100017.69
2023-09-19T14:14:02.483Z,100033.81
2023-09-19T14:17:06.134Z,100053.78
2023-09-19T14:20:11.506Z,100069.62
2023-09-19T14:23:14.408Z,100061.34
2023-09-19T14:26:19.656Z,100044.09
2023-09-19T14:29:22.334Z,100036.00
2023-09-19T14:32:25.080Z,100043.09
2023-09-19T14:35:27.780Z,100040.28
2023-09-19T14:38:30.135Z,100037.66
2023-09-19T14:41:33.014Z,100039.75
2023-09-19T14:44:36.303Z,100032.91
2023-09-19T14:47:39.134Z,100043.91
2023-09-19T14:50:41.766Z,100045.06
2023-09-19T14:53:44.559Z,100045.19
2023-09-19T14:56:46.986Z,100049.41
2023-09-19T14:59:49.635Z,100049.19
2023-09-19T15:02:52.218Z,100053.13
2023-09-19T15:06:06.328Z,100044.94
2023-09-19T15:09:10.654Z,100057.37
2023-09-19T15:12:15.240Z,100047.41
2023-09-19T15:15:18.080Z,100047.22
2023-09-19T15:18:20.795Z,100038.31
2023-09-19T15:21:23.237Z,100048.47
2023-09-19T15:24:27.656Z,100046.53
2023-09-19T15:27:31.972Z,100054.28
2023-09-19T15:30:40.678Z,100046.87
2023-09-19T15:33:43.130Z,100048.53
2023-09-19T15:36:46.049Z,100050.66
2023-09-19T15:39:48.449Z,100043.87
2023-09-19T15:42:51.370Z,100051.03
2023-09-19T15:45:53.838Z,100048.97
2023-09-19T15:48:57.735Z,100043.78
2023-09-19T15:52:00.151Z,100053.94
2023-09-19T15:55:07.212Z,100052.75
2023-09-19T15:58:09.729Z,100050.81
2023-09-19T16:01:12.598Z,100055.72
2023-09-19T16:04:15.680Z,100053.47
2023-09-19T16:07:19.928Z,100055.72
2023-09-19T16:10:24.151Z,100059.72
2023-09-19T16:13:27.062Z,100058.28
2023-09-19T16:16:32.194Z,100060.28
2023-09-19T16:19:34.711Z,100055.16
2023-09-19T16:22:37.413Z,100057.41
2023-09-19T16:25:39.874Z,100058.63
2023-09-19T16:28:45.251Z,100053.41
2023-09-19T16:31:55.874Z,100058.25
2023-09-19T16:34:58.554Z,100054.06
2023-09-19T16:38:01.280Z,100053.72
2023-09-19T16:41:05.498Z,100053.19
2023-09-19T16:44:09.190Z,100062.66
2023-09-19T16:47:12.644Z,100057.37
2023-09-19T16:50:15.083Z,100061.66
2023-09-19T16:53:18.371Z,100059.22
2023-09-19T16:56:21.458Z,100061.50
2023-09-19T16:59:24.950Z,100066.44
2023-09-19T17:02:29.597Z,100066.78
2023-09-19T17:05:33.105Z,100058.16
2023-09-19T17:08:36.072Z,100063.91
2023-09-19T17:11:39.272Z,100074.87
2023-09-19T17:14:41.732Z,100080.75
2023-09-19T17:17:44.619Z,100077.13
2023-09-19T17:20:47.268Z,100076.31
2023-09-19T17:23:50.326Z,100087.63
2023-09-19T17:26:52.764Z,100091.31
2023-09-19T17:29:55.745Z,100094.22
2023-09-19T17:32:58.389Z,100098.44
2023-09-19T17:36:15.275Z,100101.37
2023-09-19T17:39:20.175Z,100097.50
2023-09-19T17:42:24.662Z,100094.78
2023-09-19T17:45:27.282Z,100102.44
2023-09-19T17:48:30.093Z,100107.12
2023-09-19T17:51:32.769Z,100104.03
2023-09-19T17:54:35.806Z,100109.62
2023-09-19T17:57:38.495Z,100108.94
2023-09-19T18:00:42.370Z,100108.56
2023-09-19T18:03:45.367Z,100114.94
2023-09-19T18:06:49.826Z,100116.22
2023-09-19T18:09:52.683Z,100119.50
2023-09-19T18:12:56.459Z,100134.09
2023-09-19T18:15:59.513Z,100125.44
2023-09-19T18:19:03.898Z,100131.72
2023-09-19T18:22:07.720Z,100129.81
2023-09-19T18:25:10.416Z,100131.34
2023-09-19T18:28:14.252Z,100135.97
2023-09-19T18:31:19.063Z,100147.41
2023-09-19T18:34:22.242Z,100144.69
2023-09-19T18:37:25.296Z,100141.31
2023-09-19T18:40:28.998Z,100143.03
2023-09-19T18:43:31.985Z,100147.38
2023-09-19T18:46:35.702Z,100148.84
2023-09-19T18:49:38.251Z,100144.66
2023-09-19T18:52:41.039Z,100145.03
2023-09-19T18:55:43.776Z,100141.87
2023-09-19T18:58:50.872Z,100147.50
2023-09-19T19:01:55.000Z,100160.38
2023-09-19T19:04:59.110Z,100154.00
2023-09-19T19:08:02.505Z,100153.94
2023-09-19T19:11:12.421Z,100158.94
2023-09-19T19:14:14.914Z,100161.00
2023-09-19T19:17:18.124Z,100161.72
2023-09-19T19:20:24.798Z,100165.66
2023-09-19T19:23:29.097Z,100166.97
2023-09-19T19:26:32.167Z,100159.91
2023-09-19T19:29:36.137Z,100169.91
2023-09-19T19:32:38.801Z,100170.84
2023-09-19T19:35:41.847Z,100186.19
2023-09-19T19:38:46.680Z,100173.75
2023-09-19T19:41:51.632Z,100181.06
2023-09-19T19:44:55.193Z,100178.50
2023-09-19T19:47:58.823Z,100185.63
2023-09-19T19:51:08.094Z,100193.75
2023-09-19T19:54:13.896Z,100189.25
2023-09-19T19:57:18.560Z,100196.00
2023-09-19T20:00:23.519Z,100204.31
2023-09-19T20:03:27.271Z,100202.31
2023-09-19T20:06:30.038Z,100199.50
2023-09-19T20:09:33.208Z,100203.91
2023-09-19T20:12:37.075Z,100190.78
2023-09-19T20:15:40.108Z,100197.38
2023-09-19T20:18:42.823Z,100202.94
2023-09-19T20:21:45.757Z,100200.41
2023-09-19T20:24:48.340Z,100202.44
2023-09-19T20:27:51.200Z,100189.37
2023-09-19T20:30:53.832Z,100205.50
2023-09-19T20:34:00.738Z,100202.94
2023-09-19T20:37:03.323Z,100209.50
2023-09-19T20:40:12.912Z,100212.28
2023-09-19T20:43:15.573Z,100219.87
2023-09-19T20:46:18.277Z,100214.97
2023-09-19T20:49:20.959Z,100210.59
2023-09-19T20:52:25.202Z,100211.44
2023-09-19T20:55:27.547Z,100210.75
2023-09-19T20:58:30.239Z,100216.31
2023-09-19T21:01:33.665Z,100226.38
2023-09-19T21:04:36.565Z,100220.75
2023-09-19T21:07:39.669Z,100215.09
2023-09-19T21:10:42.340Z,100215.50
2023-09-19T21:13:46.199Z,100210.78
2023-09-19T21:16:50.100Z,100217.66
2023-09-19T21:19:52.872Z,100237.78
2023-09-19T21:22:57.444Z,100239.75
2023-09-19T21:25:59.949Z,100235.41
2023-09-19T21:29:02.706Z,100248.16
2023-09-19T21:32:05.546Z,100237.63
2023-09-19T21:35:08.999Z,100244.81
2023-09-19T21:38:12.502Z,100250.47
2023-09-19T21:41:17.918Z,100236.25
2023-09-19T21:44:20.653Z,100244.75
2023-09-19T21:47:23.321Z,100244.63
2023-09-19T21:50:26.402Z,100245.66
2023-09-19T21:53:29.163Z,100246.50
2023-09-19T21:56:32.106Z,100245.75
2023-09-19T21:59:35.084Z,100237.09
2023-09-19T22:02:39.420Z,100243.59
2023-09-19T22:05:42.396Z,100240.75
2023-09-19T22:08:48.209Z,100236.44
2023-09-19T22:11:52.722Z,100240.37
2023-09-19T22:14:55.057Z,100238.41
2023-09-19T22:17:59.117Z,100242.84
2023-09-19T22:21:07.973Z,100250.37
2023-09-19T22:24:12.321Z,100246.12
2023-09-19T22:27:14.739Z,100248.78
2023-09-19T22:30:20.057Z,100247.16
2023-09-19T22:33:23.929Z,100246.38
2023-09-19T22:36:39.850Z,100250.91
2023-09-19T22:39:43.085Z,100250.56
2023-09-19T22:42:49.242Z,100248.00
2023-09-19T22:45:51.689Z,100246.53
2023-09-19T22:48:55.432Z,100240.31
2023-09-19T22:52:00.778Z,100246.75
2023-09-19T22:55:06.992Z,100256.72
2023-09-19T22:58:10.982Z,100259.19
2023-09-19T23:01:26.282Z,100254.69
2023-09-19T23:04:28.640Z,100256.47
2023-09-19T23:07:32.088Z,100260.97
2023-09-19T23:10:40.831Z,100261.88
2023-09-19T23:13:43.445Z,100258.47
2023-09-19T23:16:49.728Z,100265.75
2023-09-19T23:19:57.030Z,100265.88
2023-09-19T23:22:59.807Z,100273.19
2023-09-19T23:26:07.280Z,100263.13
2023-09-19T23:29:09.917Z,100273.09
2023-09-19T23:32:16.320Z,100277.69
2023-09-19T23:35:21.038Z,100274.16
2023-09-19T23:38:23.839Z,100285.00
2023-09-19T23:41:27.663Z,100286.16
2023-09-19T23:44:30.463Z,100277.28
2023-09-19T23:47:33.074Z,100282.66
2023-09-19T23:50:38.260Z,100282.00
2023-09-19T23:53:41.067Z,100282.09
2023-09-19T23:56:46.661Z,100286.50
2023-09-19T23:59:50.628Z,100277.72
